Time;durP1;ratioP1;P1;durP2;ratioP2;P2;SDS_P1;SDS_P2;PMS_P1;PMS_P2;Temp;Humidity;BMP_temperature;BMP_pressure;BME280_temperature;BME280_humidity;BME280_pressure;Samples;Min_cycle;Max_cycle;Signal;HPM_P1;HPM_P2
2021/03/16 00:01:23;;;;;;;14.15;7.57;;;;;;;;;;4971868;28;20117;-65
2021/03/16 00:03:50;;;;;;;12.50;7.78;;;;;;;;;;4970391;28;20390;-66
2021/03/16 00:06:18;;;;;;;12.38;7.53;;;;;;;;;;4971368;28;20122;-65
2021/03/16 00:08:46;;;;;;;12.80;7.57;;;;;;;;;;4970671;28;20039;-66
2021/03/16 00:11:13;;;;;;;14.98;8.88;;;;;;;;;;4971348;28;20179;-66
2021/03/16 00:13:40;;;;;;;12.75;6.68;;;;;;;;;;4967089;28;20069;-66
2021/03/16 00:16:08;;;;;;;14.80;8.13;;;;;;;;;;4971824;28;20078;-66
2021/03/16 00:18:35;;;;;;;13.93;7.43;;;;;;;;;;4971317;28;20095;-66
2021/03/16 00:21:03;;;;;;;17.13;7.65;;;;;;;;;;4971830;28;20051;-66
2021/03/16 00:23:30;;;;;;;14.77;7.53;;;;;;;;;;4969762;28;20082;-66
2021/03/16 00:25:59;;;;;;;12.23;7.57;;;;;;;;;;4971473;28;20058;-67
2021/03/16 00:28:26;;;;;;;13.57;7.85;;;;;;;;;;4970254;28;20097;-67
2021/03/16 00:30:54;;;;;;;13.38;8.15;;;;;;;;;;4970882;28;20157;-67
2021/03/16 00:33:21;;;;;;;14.88;8.27;;;;;;;;;;4969782;28;20053;-67
2021/03/16 00:35:49;;;;;;;14.23;7.65;;;;;;;;;;4974941;28;20121;-67
2021/03/16 00:38:16;;;;;;;17.48;8.57;;;;;;;;;;4970285;28;20051;-67
2021/03/16 00:40:44;;;;;;;13.63;7.45;;;;;;;;;;4971624;28;20535;-67
2021/03/16 00:43:12;;;;;;;13.45;7.13;;;;;;;;;;4971344;28;20094;-66
2021/03/16 00:45:39;;;;;;;12.18;7.75;;;;;;;;;;4969984;28;20043;-67
2021/03/16 00:48:07;;;;;;;15.13;8.32;;;;;;;;;;4970836;28;20051;-67
2021/03/16 00:50:35;;;;;;;15.48;7.88;;;;;;;;;;4970171;28;20123;-67
2021/03/16 00:53:02;;;;;;;15.80;7.80;;;;;;;;;;4971379;28;20055;-67
2021/03/16 00:55:36;;;;;;;18.25;8.38;;;;;;;;;;4962388;28;20043;-67
2021/03/16 00:58:03;;;;;;;13.32;8.38;;;;;;;;;;4966564;28;20406;-67
2021/03/16 01:00:31;;;;;;;15.30;8.50;;;;;;;;;;4970478;28;20098;-66
2021/03/16 01:02:59;;;;;;;13.02;8.02;;;;;;;;;;4963379;28;20403;-67
2021/03/16 01:05:26;;;;;;;16.33;8.70;;;;;;;;;;4970575;28;20101;-67
2021/03/16 01:07:54;;;;;;;16.35;7.88;;;;;;;;;;4970086;28;20153;-67
2021/03/16 01:10:22;;;;;;;18.63;7.97;;;;;;;;;;4971143;28;20055;-67
2021/03/16 01:12:50;;;;;;;14.27;7.88;;;;;;;;;;4970974;28;20553;-67
2021/03/16 01:15:17;;;;;;;16.23;7.85;;;;;;;;;;4970735;28;20126;-67
2021/03/16 01:17:45;;;;;;;14.63;7.53;;;;;;;;;;4970120;28;20061;-67
2021/03/16 01:20:16;;;;;;;14.50;7.35;;;;;;;;;;4970126;28;20053;-67
2021/03/16 01:22:43;;;;;;;14.45;7.22;;;;;;;;;;4970238;28;20793;-67
2021/03/16 01:25:11;;;;;;;13.45;7.95;;;;;;;;;;4970990;28;20434;-67
2021/03/16 01:27:39;;;;;;;14.95;7.80;;;;;;;;;;4968927;28;20055;-67
2021/03/16 01:30:07;;;;;;;13.68;8.07;;;;;;;;;;4971196;28;20058;-67
2021/03/16 01:32:34;;;;;;;12.20;7.28;;;;;;;;;;4970278;28;20125;-67
2021/03/16 01:35:03;;;;;;;12.85;6.97;;;;;;;;;;4973584;28;20047;-67
2021/03/16 01:37:31;;;;;;;13.55;7.57;;;;;;;;;;4973363;28;20082;-67
2021/03/16 01:39:58;;;;;;;12.90;6.25;;;;;;;;;;4974055;28;20466;-67
2021/03/16 01:42:25;;;;;;;13.85;7.60;;;;;;;;;;4973216;28;20050;-67
2021/03/16 01:44:53;;;;;;;18.83;8.10;;;;;;;;;;4974715;28;20059;-67
2021/03/16 01:47:21;;;;;;;15.05;6.82;;;;;;;;;;4973203;28;20071;-68
2021/03/16 01:49:49;;;;;;;14.52;6.95;;;;;;;;;;4974076;28;20118;-67
2021/03/16 01:52:17;;;;;;;15.52;7.22;;;;;;;;;;4973611;28;20169;-67
2021/03/16 01:54:45;;;;;;;16.50;6.90;;;;;;;;;;4979275;28;20109;-67
2021/03/16 01:57:13;;;;;;;11.20;6.88;;;;;;;;;;4972740;28;20487;-67
2021/03/16 01:59:41;;;;;;;12.82;6.28;;;;;;;;;;4973328;28;20134;-67
2021/03/16 02:02:08;;;;;;;12.82;7.10;;;;;;;;;;4961142;28;20059;-67
2021/03/16 02:04:37;;;;;;;12.75;6.90;;;;;;;;;;4966943;28;20049;-67
2021/03/16 02:07:07;;;;;;;16.50;7.35;;;;;;;;;;4973293;28;20057;-67
2021/03/16 02:09:37;;;;;;;18.92;7.63;;;;;;;;;;4973209;28;20066;-67
2021/03/16 02:12:07;;;;;;;15.63;7.28;;;;;;;;;;4973390;28;20077;-67
2021/03/16 02:14:37;;;;;;;13.60;7.28;;;;;;;;;;4973606;28;20055;-67
2021/03/16 02:17:06;;;;;;;15.75;6.72;;;;;;;;;;4972722;28;20464;-67
2021/03/16 02:19:46;;;;;;;13.25;6.53;;;;;;;;;;4973190;28;20055;-67
2021/03/16 02:22:13;;;;;;;11.82;6.68;;;;;;;;;;4973394;28;20048;-67
2021/03/16 02:24:54;;;;;;;13.32;6.80;;;;;;;;;;4973331;28;20094;-67
2021/03/16 02:27:24;;;;;;;12.77;6.75;;;;;;;;;;4971912;28;20137;-68
2021/03/16 02:29:54;;;;;;;13.13;6.57;;;;;;;;;;4973304;28;20129;-67
2021/03/16 02:32:23;;;;;;;14.32;6.80;;;;;;;;;;4973448;28;20075;-67
2021/03/16 02:34:52;;;;;;;12.55;6.72;;;;;;;;;;4975916;28;20051;-67
2021/03/16 02:37:20;;;;;;;14.10;6.70;;;;;;;;;;4972537;28;20078;-68
2021/03/16 02:39:48;;;;;;;15.00;6.90;;;;;;;;;;4973713;28;20053;-67
2021/03/16 02:42:16;;;;;;;14.82;6.78;;;;;;;;;;4966735;28;20073;-68
2021/03/16 02:44:44;;;;;;;11.15;6.60;;;;;;;;;;4972877;28;20530;-67
2021/03/16 02:47:13;;;;;;;15.00;7.25;;;;;;;;;;4975794;28;20134;-67
2021/03/16 02:49:42;;;;;;;15.05;6.57;;;;;;;;;;4967229;28;20047;-67
2021/03/16 02:52:10;;;;;;;13.05;6.63;;;;;;;;;;4974349;28;20133;-67
2021/03/16 02:54:39;;;;;;;15.80;7.47;;;;;;;;;;4972094;28;20478;-67
2021/03/16 02:57:10;;;;;;;16.40;7.20;;;;;;;;;;4972505;28;20569;-67
2021/03/16 02:59:38;;;;;;;13.43;6.65;;;;;;;;;;4971692;28;20046;-67
2021/03/16 03:02:07;;;;;;;14.93;7.30;;;;;;;;;;4971630;28;20058;-67
2021/03/16 03:04:35;;;;;;;18.23;6.97;;;;;;;;;;4972152;28;20425;-67
2021/03/16 03:07:03;;;;;;;19.20;7.65;;;;;;;;;;4971495;28;20169;-67
2021/03/16 03:09:32;;;;;;;14.48;7.28;;;;;;;;;;4971100;28;20475;-67
2021/03/16 03:12:00;;;;;;;19.20;7.32;;;;;;;;;;4971744;28;20066;-67
2021/03/16 03:14:28;;;;;;;16.13;7.25;;;;;;;;;;4972453;28;20163;-67
2021/03/16 03:16:57;;;;;;;16.40;6.57;;;;;;;;;;4972655;28;20078;-68
2021/03/16 03:19:25;;;;;;;16.67;7.68;;;;;;;;;;4972218;28;20050;-67
2021/03/16 03:21:56;;;;;;;16.33;7.10;;;;;;;;;;4972363;28;20422;-67
2021/03/16 03:24:24;;;;;;;14.50;8.00;;;;;;;;;;4972511;28;20051;-67
2021/03/16 03:26:56;;;;;;;16.60;7.28;;;;;;;;;;4972243;28;20083;-67
2021/03/16 03:29:25;;;;;;;20.08;7.07;;;;;;;;;;4971918;28;20082;-67
2021/03/16 03:31:53;;;;;;;17.70;6.68;;;;;;;;;;4972783;28;20074;-67
2021/03/16 03:34:21;;;;;;;16.50;7.47;;;;;;;;;;4972037;28;20051;-67
2021/03/16 03:36:50;;;;;;;13.45;7.00;;;;;;;;;;4971984;28;20066;-67
2021/03/16 03:39:19;;;;;;;20.85;7.60;;;;;;;;;;4971783;28;20495;-67
2021/03/16 03:41:47;;;;;;;14.40;7.85;;;;;;;;;;4972123;28;20122;-67
2021/03/16 03:44:14;;;;;;;15.00;6.93;;;;;;;;;;4971703;28;20491;-67
2021/03/16 03:46:42;;;;;;;18.80;6.90;;;;;;;;;;4972339;28;20126;-67
2021/03/16 03:49:10;;;;;;;17.35;6.68;;;;;;;;;;4973420;28;20046;-68
2021/03/16 03:51:39;;;;;;;19.45;7.90;;;;;;;;;;4971238;28;20109;-68
2021/03/16 03:54:07;;;;;;;14.73;7.10;;;;;;;;;;4971982;28;20137;-67
2021/03/16 03:56:36;;;;;;;14.98;7.38;;;;;;;;;;4971544;28;20055;-68
2021/03/16 03:59:04;;;;;;;18.52;8.95;;;;;;;;;;4971697;28;20158;-67
2021/03/16 04:01:32;;;;;;;14.35;7.70;;;;;;;;;;4971721;28;20047;-68
2021/03/16 04:04:01;;;;;;;18.73;7.63;;;;;;;;;;4969255;28;20078;-68
2021/03/16 04:06:28;;;;;;;19.05;7.80;;;;;;;;;;4971824;28;20046;-67
2021/03/16 04:08:56;;;;;;;19.15;6.72;;;;;;;;;;4971261;28;20051;-67
2021/03/16 04:11:25;;;;;;;15.15;6.95;;;;;;;;;;4971376;28;20128;-68
2021/03/16 04:13:54;;;;;;;15.20;7.88;;;;;;;;;;4972058;28;20061;-67
2021/03/16 04:16:21;;;;;;;16.88;7.55;;;;;;;;;;4971630;28;20460;-68
2021/03/16 04:18:49;;;;;;;16.77;7.25;;;;;;;;;;4970067;28;20047;-68
2021/03/16 04:21:17;;;;;;;17.60;7.47;;;;;;;;;;4970257;28;20380;-67
2021/03/16 04:23:44;;;;;;;15.90;7.22;;;;;;;;;;4971145;28;20403;-67
2021/03/16 04:26:11;;;;;;;18.00;7.68;;;;;;;;;;4971887;28;20137;-68
2021/03/16 04:28:39;;;;;;;17.58;7.18;;;;;;;;;;4971246;28;20138;-67
2021/03/16 04:31:07;;;;;;;17.58;6.70;;;;;;;;;;4971042;28;20134;-68
2021/03/16 04:33:34;;;;;;;21.88;8.40;;;;;;;;;;4970924;28;20528;-66
2021/03/16 04:36:02;;;;;;;15.65;7.57;;;;;;;;;;4971722;28;20046;-67
2021/03/16 04:38:29;;;;;;;19.17;7.60;;;;;;;;;;4971083;28;20050;-67
2021/03/16 04:40:56;;;;;;;14.43;6.80;;;;;;;;;;4971393;28;20130;-67
2021/03/16 04:43:23;;;;;;;16.48;7.65;;;;;;;;;;4970908;28;20050;-67
2021/03/16 04:45:51;;;;;;;17.52;7.43;;;;;;;;;;4970132;28;20130;-68
2021/03/16 04:48:19;;;;;;;15.95;7.82;;;;;;;;;;4966659;28;20137;-68
2021/03/16 04:50:47;;;;;;;21.30;7.38;;;;;;;;;;4967112;28;20562;-68
2021/03/16 04:53:14;;;;;;;17.80;7.53;;;;;;;;;;4968103;28;20138;-68
2021/03/16 04:55:42;;;;;;;19.25;7.65;;;;;;;;;;4968276;28;20055;-68
2021/03/16 04:58:09;;;;;;;15.95;6.32;;;;;;;;;;4967234;28;20133;-67
2021/03/16 05:00:36;;;;;;;17.58;6.63;;;;;;;;;;4968132;28;20047;-67
2021/03/16 05:03:04;;;;;;;11.88;6.18;;;;;;;;;;4967414;28;20061;-67
2021/03/16 05:05:32;;;;;;;20.83;7.43;;;;;;;;;;4967675;28;20414;-66
2021/03/16 05:07:59;;;;;;;21.13;7.05;;;;;;;;;;4967152;28;20090;-66
2021/03/16 05:10:26;;;;;;;19.38;7.65;;;;;;;;;;4970791;28;20129;-66
2021/03/16 05:12:54;;;;;;;15.18;6.95;;;;;;;;;;4970846;28;20590;-67
2021/03/16 05:15:21;;;;;;;17.30;6.60;;;;;;;;;;4972669;28;20139;-66
2021/03/16 05:17:48;;;;;;;19.08;7.13;;;;;;;;;;4972085;28;20077;-66
2021/03/16 05:20:16;;;;;;;21.05;6.75;;;;;;;;;;4972664;28;20046;-66
2021/03/16 05:22:44;;;;;;;17.38;7.50;;;;;;;;;;4971293;28;20117;-66
2021/03/16 05:25:12;;;;;;;17.60;7.50;;;;;;;;;;4971715;28;20177;-66
2021/03/16 05:27:39;;;;;;;24.42;7.22;;;;;;;;;;4970579;28;20054;-67
2021/03/16 05:30:07;;;;;;;16.88;6.70;;;;;;;;;;4971645;28;20070;-66
2021/03/16 05:32:34;;;;;;;15.50;7.63;;;;;;;;;;4971352;28;20303;-66
2021/03/16 05:35:02;;;;;;;14.98;6.60;;;;;;;;;;4970828;28;20482;-66
2021/03/16 05:37:29;;;;;;;12.85;4.80;;;;;;;;;;4970853;28;20069;-67
2021/03/16 05:39:57;;;;;;;18.95;6.68;;;;;;;;;;4970229;28;20413;-67
2021/03/16 05:42:25;;;;;;;20.00;7.72;;;;;;;;;;4970777;28;20054;-67
2021/03/16 05:44:52;;;;;;;21.42;7.25;;;;;;;;;;4971166;28;20082;-67
2021/03/16 05:47:20;;;;;;;16.98;6.78;;;;;;;;;;4970349;28;20082;-68
2021/03/16 05:49:50;;;;;;;22.30;6.88;;;;;;;;;;4971801;28;20130;-67
2021/03/16 05:52:17;;;;;;;14.48;6.28;;;;;;;;;;4970804;28;20563;-67
2021/03/16 05:54:45;;;;;;;17.63;7.45;;;;;;;;;;4971519;28;20363;-67
2021/03/16 05:57:13;;;;;;;16.80;6.90;;;;;;;;;;4970757;28;20210;-67
2021/03/16 05:59:40;;;;;;;14.85;6.13;;;;;;;;;;4969790;28;20050;-67
2021/03/16 06:02:07;;;;;;;21.60;6.97;;;;;;;;;;4969309;28;20346;-67
2021/03/16 06:04:41;;;;;;;15.13;6.97;;;;;;;;;;4961698;28;20062;-67
2021/03/16 06:07:09;;;;;;;23.00;6.70;;;;;;;;;;4969950;28;20046;-67
2021/03/16 06:09:36;;;;;;;19.20;6.88;;;;;;;;;;4969149;28;20138;-67
2021/03/16 06:12:04;;;;;;;11.05;5.53;;;;;;;;;;4969935;28;20146;-67
2021/03/16 06:14:37;;;;;;;19.30;6.30;;;;;;;;;;4964791;28;20054;-67
2021/03/16 06:17:05;;;;;;;23.05;6.95;;;;;;;;;;4966678;28;20732;-67
2021/03/16 06:19:34;;;;;;;17.95;6.63;;;;;;;;;;4966145;28;20059;-67
2021/03/16 06:22:02;;;;;;;14.68;6.03;;;;;;;;;;4969881;28;20388;-67
2021/03/16 06:24:29;;;;;;;11.68;6.15;;;;;;;;;;4969968;28;20168;-67
2021/03/16 06:26:57;;;;;;;19.08;7.03;;;;;;;;;;4951928;28;20057;-67
2021/03/16 06:29:46;;;;;;;13.25;5.78;;;;;;;;;;4961732;28;20054;-67
2021/03/16 06:32:13;;;;;;;14.20;5.90;;;;;;;;;;4970193;28;20144;-68
2021/03/16 06:34:41;;;;;;;12.68;6.15;;;;;;;;;;4968922;28;20039;-67
2021/03/16 06:37:08;;;;;;;18.55;6.90;;;;;;;;;;4969977;28;20377;-67
2021/03/16 06:39:35;;;;;;;16.35;5.65;;;;;;;;;;4972832;28;20130;-67
2021/03/16 06:42:03;;;;;;;15.60;6.65;;;;;;;;;;4973442;28;20049;-67
2021/03/16 06:44:30;;;;;;;17.60;6.22;;;;;;;;;;4972412;28;20047;-67
2021/03/16 06:46:59;;;;;;;15.65;6.20;;;;;;;;;;4973149;28;20439;-67
2021/03/16 06:49:28;;;;;;;12.75;6.20;;;;;;;;;;4973047;28;20035;-67
2021/03/16 06:51:55;;;;;;;15.57;7.07;;;;;;;;;;4972932;28;20058;-67
2021/03/16 06:54:24;;;;;;;11.93;5.63;;;;;;;;;;4972676;28;20074;-67
2021/03/16 06:56:52;;;;;;;16.77;5.90;;;;;;;;;;4971814;28;20126;-67
2021/03/16 06:59:21;;;;;;;14.50;5.32;;;;;;;;;;4972555;28;20117;-67
2021/03/16 07:01:48;;;;;;;14.75;6.35;;;;;;;;;;4965741;28;20058;-67
2021/03/16 07:04:18;;;;;;;10.15;4.85;;;;;;;;;;4971940;28;20046;-67
2021/03/16 07:06:47;;;;;;;9.35;4.47;;;;;;;;;;4972364;28;20479;-66
2021/03/16 07:09:15;;;;;;;11.80;5.22;;;;;;;;;;4971571;28;20443;-66
2021/03/16 07:11:45;;;;;;;11.88;4.45;;;;;;;;;;4972209;28;20464;-67
2021/03/16 07:14:14;;;;;;;14.35;5.13;;;;;;;;;;4966101;28;20066;-67
2021/03/16 07:16:41;;;;;;;11.50;4.60;;;;;;;;;;4972106;28;20062;-67
2021/03/16 07:19:09;;;;;;;13.68;4.75;;;;;;;;;;4972199;28;20074;-67
2021/03/16 07:21:39;;;;;;;8.63;4.13;;;;;;;;;;4970870;28;20395;-67
2021/03/16 07:24:08;;;;;;;8.65;4.82;;;;;;;;;;4969550;28;20046;-67
2021/03/16 07:26:36;;;;;;;18.10;6.65;;;;;;;;;;4972749;28;20063;-67
2021/03/16 07:29:04;;;;;;;10.40;5.15;;;;;;;;;;4972008;28;20058;-68
2021/03/16 07:31:32;;;;;;;7.82;4.72;;;;;;;;;;4972213;28;20058;-68
2021/03/16 07:34:05;;;;;;;8.15;4.18;;;;;;;;;;4972472;28;20047;-67
2021/03/16 07:36:33;;;;;;;7.72;3.90;;;;;;;;;;4971753;28;20054;-67
2021/03/16 07:39:02;;;;;;;7.75;3.17;;;;;;;;;;4964718;28;20054;-67
2021/03/16 07:41:30;;;;;;;10.98;4.22;;;;;;;;;;4969488;28;20046;-67
2021/03/16 07:44:02;;;;;;;8.45;3.85;;;;;;;;;;4969135;28;20137;-66
2021/03/16 07:46:40;;;;;;;6.95;3.50;;;;;;;;;;4971065;28;20494;-66
2021/03/16 07:49:08;;;;;;;11.45;4.50;;;;;;;;;;4970416;28;20043;-66
2021/03/16 07:51:37;;;;;;;6.43;3.75;;;;;;;;;;4970001;28;20639;-66
2021/03/16 07:54:07;;;;;;;11.35;4.75;;;;;;;;;;4964508;28;20066;-66
2021/03/16 07:56:35;;;;;;;8.43;4.05;;;;;;;;;;4967153;28;20498;-66
2021/03/16 07:59:04;;;;;;;11.00;5.03;;;;;;;;;;4969074;28;20055;-66
2021/03/16 08:01:32;;;;;;;11.77;4.28;;;;;;;;;;4969912;28;20125;-67
2021/03/16 08:04:06;;;;;;;8.98;4.25;;;;;;;;;;4956962;28;20062;-67
2021/03/16 08:06:36;;;;;;;10.25;4.90;;;;;;;;;;4969699;28;20093;-67
2021/03/16 08:09:04;;;;;;;11.25;4.50;;;;;;;;;;4967841;28;20054;-66
2021/03/16 08:11:39;;;;;;;9.40;4.22;;;;;;;;;;4969717;28;20047;-67
2021/03/16 08:14:07;;;;;;;8.55;4.90;;;;;;;;;;4969294;28;20058;-66
2021/03/16 08:16:36;;;;;;;10.82;4.70;;;;;;;;;;4969071;28;20059;-67
2021/03/16 08:19:11;;;;;;;8.65;4.57;;;;;;;;;;4964952;28;20404;-67
2021/03/16 08:21:40;;;;;;;11.73;4.72;;;;;;;;;;4969443;28;20098;-67
2021/03/16 08:24:08;;;;;;;17.27;5.55;;;;;;;;;;4969295;28;20055;-67
2021/03/16 08:26:43;;;;;;;15.15;4.97;;;;;;;;;;4968030;28;20049;-67
2021/03/16 08:29:11;;;;;;;12.77;5.80;;;;;;;;;;4964579;28;20054;-66
2021/03/16 08:31:39;;;;;;;7.95;4.10;;;;;;;;;;4968245;28;20122;-66
2021/03/16 08:34:08;;;;;;;12.00;4.75;;;;;;;;;;4968737;28;20043;-66
2021/03/16 08:36:39;;;;;;;7.55;4.53;;;;;;;;;;4968169;28;20089;-66
2021/03/16 08:39:07;;;;;;;11.48;4.75;;;;;;;;;;4963217;28;20138;-66
2021/03/16 08:41:35;;;;;;;13.50;5.13;;;;;;;;;;4974273;28;20058;-66
2021/03/16 08:44:04;;;;;;;12.23;5.15;;;;;;;;;;4956455;28;20137;-66
2021/03/16 08:46:34;;;;;;;12.23;5.20;;;;;;;;;;4967486;28;20047;-66
2021/03/16 08:49:02;;;;;;;11.23;4.38;;;;;;;;;;4969608;28;20055;-66
2021/03/16 08:51:33;;;;;;;10.15;4.68;;;;;;;;;;4968650;28;20570;-66
2021/03/16 08:54:01;;;;;;;16.40;4.80;;;;;;;;;;4970134;28;20113;-66
2021/03/16 08:56:29;;;;;;;11.43;4.88;;;;;;;;;;4967849;28;20488;-66
2021/03/16 08:59:03;;;;;;;10.38;4.72;;;;;;;;;;4968724;28;20055;-66
2021/03/16 09:01:47;;;;;;;9.77;4.38;;;;;;;;;;4962415;28;20239;-66
2021/03/16 09:04:15;;;;;;;12.48;4.20;;;;;;;;;;4967078;28;20051;-66
2021/03/16 09:06:44;;;;;;;13.63;4.35;;;;;;;;;;4968224;28;20495;-66
2021/03/16 09:09:13;;;;;;;11.45;5.03;;;;;;;;;;4969394;28;20130;-66
2021/03/16 09:11:42;;;;;;;13.50;4.60;;;;;;;;;;4965952;28;20097;-66
2021/03/16 09:14:12;;;;;;;10.25;4.20;;;;;;;;;;4963060;28;20054;-67
2021/03/16 09:16:42;;;;;;;13.65;4.78;;;;;;;;;;4967025;28;20047;-66
2021/03/16 09:19:11;;;;;;;11.30;4.30;;;;;;;;;;4962543;28;20062;-67
2021/03/16 09:21:49;;;;;;;14.68;4.43;;;;;;;;;;4967396;28;20078;-67
2021/03/16 09:24:19;;;;;;;10.38;4.35;;;;;;;;;;4968252;28;20114;-66
2021/03/16 09:26:57;;;;;;;7.75;3.72;;;;;;;;;;4963907;28;20055;-66
2021/03/16 09:29:26;;;;;;;12.38;4.28;;;;;;;;;;4969019;28;20043;-66
2021/03/16 09:32:02;;;;;;;13.13;3.38;;;;;;;;;;4971975;28;20094;-66
2021/03/16 09:34:31;;;;;;;7.65;3.17;;;;;;;;;;4968838;28;20046;-67
2021/03/16 09:37:00;;;;;;;13.02;3.40;;;;;;;;;;4963410;28;20053;-66
2021/03/16 09:39:28;;;;;;;12.80;3.70;;;;;;;;;;4967997;28;20390;-66
2021/03/16 09:41:57;;;;;;;11.18;3.78;;;;;;;;;;4969293;28;20462;-66
2021/03/16 09:44:29;;;;;;;8.70;3.45;;;;;;;;;;4968524;28;20066;-66
2021/03/16 09:46:57;;;;;;;13.90;4.10;;;;;;;;;;4956555;28;20057;-66
2021/03/16 09:49:33;;;;;;;6.68;3.10;;;;;;;;;;4968099;28;20145;-66
2021/03/16 09:52:05;;;;;;;13.00;3.95;;;;;;;;;;4968686;28;20054;-66
2021/03/16 09:54:37;;;;;;;16.05;4.32;;;;;;;;;;4968396;28;20081;-66
2021/03/16 09:57:06;;;;;;;13.80;3.50;;;;;;;;;;4972317;28;20498;-66
2021/03/16 09:59:35;;;;;;;18.15;3.80;;;;;;;;;;4971229;28;20080;-66
2021/03/16 10:02:04;;;;;;;18.73;5.35;;;;;;;;;;4962766;28;20051;-67
2021/03/16 10:04:43;;;;;;;9.18;3.47;;;;;;;;;;4969585;28;20495;-67
2021/03/16 10:07:11;;;;;;;12.70;3.80;;;;;;;;;;4972138;28;20043;-66
2021/03/16 10:09:41;;;;;;;9.80;3.97;;;;;;;;;;4970766;28;20043;-67
2021/03/16 10:12:17;;;;;;;10.73;4.03;;;;;;;;;;4971957;28;20065;-66
2021/03/16 10:14:45;;;;;;;15.63;3.97;;;;;;;;;;4966608;28;20047;-66
2021/03/16 10:17:24;;;;;;;10.40;3.80;;;;;;;;;;4970194;28;20098;-66
2021/03/16 10:19:56;;;;;;;12.00;3.90;;;;;;;;;;4965538;28;20242;-66
2021/03/16 10:22:28;;;;;;;11.20;3.80;;;;;;;;;;4969373;28;20445;-66
2021/03/16 10:24:56;;;;;;;10.05;3.90;;;;;;;;;;4969840;28;20082;-66
2021/03/16 10:27:25;;;;;;;15.07;5.88;;;;;;;;;;4967635;28;20466;-66
2021/03/16 10:29:52;;;;;;;12.75;3.92;;;;;;;;;;4971628;28;20058;-66
2021/03/16 10:32:21;;;;;;;10.45;3.25;;;;;;;;;;4971226;28;20076;-66
2021/03/16 10:34:49;;;;;;;11.80;3.63;;;;;;;;;;4970751;28;20447;-66
2021/03/16 10:37:18;;;;;;;10.35;3.58;;;;;;;;;;4971243;28;20418;-66
2021/03/16 10:39:46;;;;;;;9.43;3.72;;;;;;;;;;4950255;29;21442;-66
2021/03/16 10:42:14;;;;;;;10.43;3.22;;;;;;;;;;4951954;29;20043;-66
2021/03/16 10:44:42;;;;;;;11.50;3.55;;;;;;;;;;4951992;29;20051;-66
2021/03/16 10:47:10;;;;;;;9.20;3.03;;;;;;;;;;4949992;29;20055;-66
2021/03/16 10:49:39;;;;;;;8.00;3.00;;;;;;;;;;4951258;28;20055;-66
2021/03/16 10:52:07;;;;;;;14.40;4.15;;;;;;;;;;4951610;29;20495;-66
2021/03/16 10:54:38;;;;;;;11.73;3.88;;;;;;;;;;4952272;29;20459;-66
2021/03/16 10:57:06;;;;;;;19.15;4.22;;;;;;;;;;4951963;29;20428;-66
2021/03/16 10:59:33;;;;;;;6.80;2.38;;;;;;;;;;4964799;28;20050;-66
2021/03/16 11:02:02;;;;;;;10.43;2.97;;;;;;;;;;4971233;28;20062;-66
2021/03/16 11:04:29;;;;;;;6.90;2.80;;;;;;;;;;4970992;28;20631;-66
2021/03/16 11:06:57;;;;;;;15.00;3.15;;;;;;;;;;4969903;28;20145;-66
2021/03/16 11:09:25;;;;;;;12.45;3.55;;;;;;;;;;4970904;28;20106;-66
2021/03/16 11:11:53;;;;;;;10.85;2.70;;;;;;;;;;4967627;28;20464;-66
2021/03/16 11:14:21;;;;;;;9.95;2.65;;;;;;;;;;4971883;28;20054;-66
2021/03/16 11:16:49;;;;;;;6.82;2.70;;;;;;;;;;4965529;28;20070;-66
2021/03/16 11:19:17;;;;;;;11.07;3.47;;;;;;;;;;4966613;28;20086;-66
2021/03/16 11:21:45;;;;;;;5.13;2.45;;;;;;;;;;4970831;28;20142;-66
2021/03/16 11:24:14;;;;;;;7.90;2.53;;;;;;;;;;4972340;28;20054;-66
2021/03/16 11:26:42;;;;;;;5.88;2.70;;;;;;;;;;4969888;28;20094;-66
2021/03/16 11:29:11;;;;;;;9.45;2.65;;;;;;;;;;4970816;28;20062;-67
2021/03/16 11:31:39;;;;;;;8.90;2.45;;;;;;;;;;4969642;28;20367;-66
2021/03/16 11:34:07;;;;;;;6.30;2.50;;;;;;;;;;4969177;28;20050;-67
2021/03/16 11:36:35;;;;;;;13.60;2.47;;;;;;;;;;4959649;28;20059;-66
2021/03/16 11:39:04;;;;;;;6.50;1.95;;;;;;;;;;4962408;28;20125;-66
2021/03/16 11:41:31;;;;;;;4.80;1.60;;;;;;;;;;4964575;28;20054;-66
2021/03/16 11:43:59;;;;;;;5.95;1.80;;;;;;;;;;4963772;28;20129;-66
2021/03/16 11:46:28;;;;;;;6.97;1.85;;;;;;;;;;4965658;28;20436;-67
2021/03/16 11:48:56;;;;;;;7.72;1.85;;;;;;;;;;4966796;28;20137;-66
2021/03/16 11:51:24;;;;;;;4.20;1.63;;;;;;;;;;4957490;28;20616;-66
2021/03/16 11:53:52;;;;;;;6.93;1.75;;;;;;;;;;4967286;28;20101;-66
2021/03/16 11:56:20;;;;;;;6.13;1.67;;;;;;;;;;4962346;28;20586;-65
2021/03/16 11:58:48;;;;;;;4.13;1.50;;;;;;;;;;4964983;28;20065;-65
2021/03/16 12:01:16;;;;;;;7.65;1.67;;;;;;;;;;4967563;28;20067;-66
2021/03/16 12:03:45;;;;;;;4.60;1.73;;;;;;;;;;4964898;28;20074;-66
2021/03/16 12:06:14;;;;;;;7.03;2.05;;;;;;;;;;4966885;28;20475;-67
2021/03/16 12:08:42;;;;;;;4.75;2.10;;;;;;;;;;4964456;28;20053;-66
2021/03/16 12:11:10;;;;;;;5.07;1.70;;;;;;;;;;4962891;28;20076;-66
2021/03/16 12:13:37;;;;;;;5.47;1.70;;;;;;;;;;4962384;28;20125;-66
2021/03/16 12:16:05;;;;;;;5.38;2.10;;;;;;;;;;4966013;28;20560;-66
2021/03/16 12:18:33;;;;;;;6.35;2.10;;;;;;;;;;4963506;28;20055;-66
2021/03/16 12:21:02;;;;;;;7.32;2.80;;;;;;;;;;4961983;28;20057;-66
2021/03/16 12:23:30;;;;;;;7.82;2.75;;;;;;;;;;4965989;28;20050;-66
2021/03/16 12:25:58;;;;;;;11.80;2.40;;;;;;;;;;4960372;28;20129;-67
2021/03/16 12:28:25;;;;;;;6.72;2.30;;;;;;;;;;4962507;28;20050;-66
2021/03/16 12:30:53;;;;;;;10.18;3.97;;;;;;;;;;4961964;28;20081;-67
2021/03/16 12:33:21;;;;;;;5.78;2.95;;;;;;;;;;4959383;28;20081;-66
2021/03/16 12:35:51;;;;;;;13.63;2.78;;;;;;;;;;4966792;28;20057;-67
2021/03/16 12:38:20;;;;;;;11.00;2.40;;;;;;;;;;4965068;28;20071;-66
2021/03/16 12:40:48;;;;;;;8.18;2.72;;;;;;;;;;4969758;28;20055;-67
2021/03/16 12:43:16;;;;;;;9.25;2.67;;;;;;;;;;4965649;28;20456;-67
2021/03/16 12:45:44;;;;;;;11.20;3.05;;;;;;;;;;4968471;28;20070;-66
2021/03/16 12:48:12;;;;;;;6.85;2.92;;;;;;;;;;4967305;28;20058;-67
2021/03/16 12:50:40;;;;;;;10.52;2.50;;;;;;;;;;4964798;28;20275;-67
2021/03/16 12:53:08;;;;;;;6.10;2.30;;;;;;;;;;4969868;28;20089;-66
2021/03/16 12:55:37;;;;;;;7.45;2.25;;;;;;;;;;4969056;28;20053;-67
2021/03/16 12:58:05;;;;;;;5.72;2.60;;;;;;;;;;4969741;28;20495;-66
2021/03/16 13:00:33;;;;;;;12.25;3.83;;;;;;;;;;4969378;28;20509;-67
2021/03/16 13:03:02;;;;;;;7.82;2.60;;;;;;;;;;4963712;28;20058;-67
2021/03/16 13:05:30;;;;;;;9.35;2.22;;;;;;;;;;4966312;28;20398;-67
2021/03/16 13:07:58;;;;;;;9.05;2.22;;;;;;;;;;4962883;28;20414;-67
2021/03/16 13:10:25;;;;;;;7.63;1.70;;;;;;;;;;4971305;28;20053;-66
2021/03/16 13:12:55;;;;;;;4.50;1.73;;;;;;;;;;4964841;28;20113;-67
2021/03/16 13:15:23;;;;;;;5.60;1.65;;;;;;;;;;4969329;28;20046;-67
2021/03/16 13:17:51;;;;;;;4.15;1.60;;;;;;;;;;4966653;28;20459;-66
2021/03/16 13:20:19;;;;;;;7.32;1.80;;;;;;;;;;4969697;28;20131;-67
2021/03/16 13:22:47;;;;;;;6.28;1.90;;;;;;;;;;4969560;28;20532;-66
2021/03/16 13:25:15;;;;;;;9.55;1.92;;;;;;;;;;4970133;28;20550;-67
2021/03/16 13:27:43;;;;;;;7.00;1.90;;;;;;;;;;4956847;28;20055;-67
2021/03/16 13:30:12;;;;;;;6.10;2.10;;;;;;;;;;4972065;28;20249;-67
2021/03/16 13:32:40;;;;;;;4.72;2.00;;;;;;;;;;4972692;28;20525;-67
2021/03/16 13:35:16;;;;;;;8.95;2.33;;;;;;;;;;4973573;28;20138;-67
2021/03/16 13:37:44;;;;;;;8.02;3.08;;;;;;;;;;4970770;28;20502;-66
2021/03/16 13:40:13;;;;;;;7.38;2.05;;;;;;;;;;4970542;28;20106;-67
2021/03/16 13:42:41;;;;;;;4.13;1.83;;;;;;;;;;4955182;28;20050;-66
2021/03/16 13:45:09;;;;;;;8.60;2.58;;;;;;;;;;4968178;28;20501;-66
2021/03/16 13:47:38;;;;;;;6.45;2.45;;;;;;;;;;4969772;28;20271;-67
2021/03/16 13:50:07;;;;;;;7.20;2.28;;;;;;;;;;4972128;28;20053;-67
2021/03/16 13:52:35;;;;;;;10.95;2.35;;;;;;;;;;4971759;28;20061;-67
2021/03/16 13:55:03;;;;;;;7.03;2.08;;;;;;;;;;4971388;28;20115;-66
2021/03/16 13:57:31;;;;;;;10.32;2.70;;;;;;;;;;4971755;28;20050;-66
2021/03/16 13:59:59;;;;;;;7.95;2.28;;;;;;;;;;4965800;28;20061;-67
2021/03/16 14:02:27;;;;;;;6.80;2.75;;;;;;;;;;4970314;28;20049;-66
2021/03/16 14:04:56;;;;;;;12.15;2.80;;;;;;;;;;4970279;28;20058;-66
2021/03/16 14:07:24;;;;;;;10.95;2.47;;;;;;;;;;4967229;28;20058;-67
2021/03/16 14:09:51;;;;;;;7.57;2.50;;;;;;;;;;4964132;28;20057;-67
2021/03/16 14:12:19;;;;;;;8.20;2.08;;;;;;;;;;4970280;28;20490;-66
2021/03/16 14:14:49;;;;;;;13.30;2.25;;;;;;;;;;4962744;28;20586;-67
2021/03/16 14:17:17;;;;;;;11.73;2.47;;;;;;;;;;4972065;28;20122;-66
2021/03/16 14:19:45;;;;;;;7.78;1.83;;;;;;;;;;4951602;28;20130;-66
2021/03/16 14:22:14;;;;;;;8.32;2.20;;;;;;;;;;4952738;28;20058;-66
2021/03/16 14:24:43;;;;;;;9.05;1.98;;;;;;;;;;4950438;28;20058;-67
2021/03/16 14:27:11;;;;;;;10.35;2.22;;;;;;;;;;4952822;28;20051;-67
2021/03/16 14:29:39;;;;;;;13.13;2.38;;;;;;;;;;4952474;28;20581;-66
2021/03/16 14:32:07;;;;;;;18.98;2.30;;;;;;;;;;4950782;29;20583;-67
2021/03/16 14:34:35;;;;;;;5.55;2.33;;;;;;;;;;4953058;28;20043;-66
2021/03/16 14:37:03;;;;;;;11.57;2.42;;;;;;;;;;4949814;28;20055;-67
2021/03/16 14:39:32;;;;;;;5.60;1.90;;;;;;;;;;4966371;28;20059;-67
2021/03/16 14:42:00;;;;;;;6.15;2.33;;;;;;;;;;4967762;28;20150;-67